sensor_id;sensor_type;location;lat;lon;timestamp;temperature;humidity
40023;DHT22;25713;-35.352;149.036;2022-09-30T00:00:03;12.80;91.60
40023;DHT22;25713;-35.352;149.036;2022-09-30T00:02:52;12.80;91.50
40023;DHT22;25713;-35.352;149.036;2022-09-30T00:05:21;12.90;91.50
40023;DHT22;25713;-35.352;149.036;2022-09-30T00:07:51;12.90;92.30
40023;DHT22;25713;-35.352;149.036;2022-09-30T00:10:20;12.90;92.30
40023;DHT22;25713;-35.352;149.036;2022-09-30T00:15:38;13.10;91.60
40023;DHT22;25713;-35.352;149.036;2022-09-30T00:18:07;13.20;91.80
40023;DHT22;25713;-35.352;149.036;2022-09-30T00:20:37;13.20;90.40
40023;DHT22;25713;-35.352;149.036;2022-09-30T00:23:06;13.20;91.80
40023;DHT22;25713;-35.352;149.036;2022-09-30T00:25:36;13.20;91.80
40023;DHT22;25713;-35.352;149.036;2022-09-30T00:28:05;13.20;92.00
40023;DHT22;25713;-35.352;149.036;2022-09-30T00:30:38;13.30;91.40
40023;DHT22;25713;-35.352;149.036;2022-09-30T00:33:08;13.30;91.10
40023;DHT22;25713;-35.352;149.036;2022-09-30T00:35:37;13.30;91.60
40023;DHT22;25713;-35.352;149.036;2022-09-30T00:38:07;13.30;91.20
40023;DHT22;25713;-35.352;149.036;2022-09-30T00:40:38;13.30;91.40
40023;DHT22;25713;-35.352;149.036;2022-09-30T00:43:12;13.30;91.30
40023;DHT22;25713;-35.352;149.036;2022-09-30T00:45:49;13.40;91.60
40023;DHT22;25713;-35.352;149.036;2022-09-30T00:48:29;13.40;91.40
40023;DHT22;25713;-35.352;149.036;2022-09-30T00:50:59;13.40;90.90
40023;DHT22;25713;-35.352;149.036;2022-09-30T00:53:32;13.40;90.50
40023;DHT22;25713;-35.352;149.036;2022-09-30T00:56:06;13.40;91.00
40023;DHT22;25713;-35.352;149.036;2022-09-30T00:58:38;13.40;90.30
40023;DHT22;25713;-35.352;149.036;2022-09-30T01:01:11;13.30;91.00
40023;DHT22;25713;-35.352;149.036;2022-09-30T01:03:43;13.30;90.50
40023;DHT22;25713;-35.352;149.036;2022-09-30T01:06:14;13.30;90.20
40023;DHT22;25713;-35.352;149.036;2022-09-30T01:08:44;13.30;91.10
40023;DHT22;25713;-35.352;149.036;2022-09-30T01:11:13;13.30;91.40
40023;DHT22;25713;-35.352;149.036;2022-09-30T01:13:44;13.30;91.20
40023;DHT22;25713;-35.352;149.036;2022-09-30T01:16:41;13.30;91.40
40023;DHT22;25713;-35.352;149.036;2022-09-30T01:22:29;13.40;91.40
40023;DHT22;25713;-35.352;149.036;2022-09-30T01:28:16;13.50;90.10
40023;DHT22;25713;-35.352;149.036;2022-09-30T01:31:10;13.50;91.90
40023;DHT22;25713;-35.352;149.036;2022-09-30T01:33:47;13.50;91.30
40023;DHT22;25713;-35.352;149.036;2022-09-30T01:36:36;13.50;91.60
40023;DHT22;25713;-35.352;149.036;2022-09-30T01:39:18;13.50;91.00
40023;DHT22;25713;-35.352;149.036;2022-09-30T01:41:53;13.60;91.00
40023;DHT22;25713;-35.352;149.036;2022-09-30T01:44:33;13.60;91.30
40023;DHT22;25713;-35.352;149.036;2022-09-30T01:47:14;13.60;90.70
40023;DHT22;25713;-35.352;149.036;2022-09-30T01:49:48;13.60;90.90
40023;DHT22;25713;-35.352;149.036;2022-09-30T01:52:23;13.60;91.90
40023;DHT22;25713;-35.352;149.036;2022-09-30T01:54:58;13.70;90.70
40023;DHT22;25713;-35.352;149.036;2022-09-30T01:57:30;13.70;89.40
40023;DHT22;25713;-35.352;149.036;2022-09-30T02:00:04;13.70;89.50
40023;DHT22;25713;-35.352;149.036;2022-09-30T02:02:43;13.70;90.30
40023;DHT22;25713;-35.352;149.036;2022-09-30T02:05:16;13.70;90.90
40023;DHT22;25713;-35.352;149.036;2022-09-30T02:07:50;13.70;91.30
40023;DHT22;25713;-35.352;149.036;2022-09-30T02:10:25;13.60;91.50
40023;DHT22;25713;-35.352;149.036;2022-09-30T02:12:58;13.70;91.80
40023;DHT22;25713;-35.352;149.036;2022-09-30T02:15:36;13.80;91.40
40023;DHT22;25713;-35.352;149.036;2022-09-30T02:18:12;13.80;90.80
40023;DHT22;25713;-35.352;149.036;2022-09-30T02:20:44;13.80;92.00
40023;DHT22;25713;-35.352;149.036;2022-09-30T02:23:18;13.80;90.20
40023;DHT22;25713;-35.352;149.036;2022-09-30T02:25:50;13.80;90.70
40023;DHT22;25713;-35.352;149.036;2022-09-30T02:28:25;13.90;90.70
40023;DHT22;25713;-35.352;149.036;2022-09-30T02:30:57;13.90;91.20
40023;DHT22;25713;-35.352;149.036;2022-09-30T02:33:33;13.90;91.30
40023;DHT22;25713;-35.352;149.036;2022-09-30T02:36:09;13.90;91.20
40023;DHT22;25713;-35.352;149.036;2022-09-30T02:38:45;13.90;91.30
40023;DHT22;25713;-35.352;149.036;2022-09-30T02:41:20;13.90;91.40
40023;DHT22;25713;-35.352;149.036;2022-09-30T02:43:50;13.90;91.80
40023;DHT22;25713;-35.352;149.036;2022-09-30T02:46:26;14.00;90.30
40023;DHT22;25713;-35.352;149.036;2022-09-30T02:49:05;14.00;91.30
40023;DHT22;25713;-35.352;149.036;2022-09-30T02:51:41;14.00;90.40
40023;DHT22;25713;-35.352;149.036;2022-09-30T02:54:18;14.00;90.70
40023;DHT22;25713;-35.352;149.036;2022-09-30T02:56:53;14.00;90.10
40023;DHT22;25713;-35.352;149.036;2022-09-30T02:59:26;14.00;90.20
40023;DHT22;25713;-35.352;149.036;2022-09-30T03:01:55;14.00;90.30
40023;DHT22;25713;-35.352;149.036;2022-09-30T03:04:30;14.00;91.20
40023;DHT22;25713;-35.352;149.036;2022-09-30T03:07:01;14.00;91.30
40023;DHT22;25713;-35.352;149.036;2022-09-30T03:09:33;14.00;90.80
40023;DHT22;25713;-35.352;149.036;2022-09-30T03:12:10;14.10;90.70
40023;DHT22;25713;-35.352;149.036;2022-09-30T03:14:52;14.10;90.60
40023;DHT22;25713;-35.352;149.036;2022-09-30T03:17:44;14.20;91.00
40023;DHT22;25713;-35.352;149.036;2022-09-30T03:20:43;14.20;90.80
40023;DHT22;25713;-35.352;149.036;2022-09-30T03:23:42;14.20;90.90
40023;DHT22;25713;-35.352;149.036;2022-09-30T03:26:21;14.20;90.80
40023;DHT22;25713;-35.352;149.036;2022-09-30T03:29:02;14.20;91.60
40023;DHT22;25713;-35.352;149.036;2022-09-30T03:31:38;14.30;91.70
40023;DHT22;25713;-35.352;149.036;2022-09-30T03:34:14;14.30;91.40
40023;DHT22;25713;-35.352;149.036;2022-09-30T03:36:59;14.40;91.10
40023;DHT22;25713;-35.352;149.036;2022-09-30T03:39:38;14.50;91.50
40023;DHT22;25713;-35.352;149.036;2022-09-30T03:42:12;14.50;92.70
40023;DHT22;25713;-35.352;149.036;2022-09-30T03:44:48;14.40;92.50
40023;DHT22;25713;-35.352;149.036;2022-09-30T03:47:22;14.30;92.50
40023;DHT22;25713;-35.352;149.036;2022-09-30T03:49:52;14.20;93.70
40023;DHT22;25713;-35.352;149.036;2022-09-30T03:52:29;14.10;94.20
40023;DHT22;25713;-35.352;149.036;2022-09-30T03:55:00;14.10;94.50
40023;DHT22;25713;-35.352;149.036;2022-09-30T03:57:30;14.10;94.40
40023;DHT22;25713;-35.352;149.036;2022-09-30T04:00:00;14.20;94.30
40023;DHT22;25713;-35.352;149.036;2022-09-30T04:02:33;14.20;94.00
40023;DHT22;25713;-35.352;149.036;2022-09-30T04:05:03;14.30;94.70
40023;DHT22;25713;-35.352;149.036;2022-09-30T04:07:35;14.30;94.30
40023;DHT22;25713;-35.352;149.036;2022-09-30T04:10:06;14.40;94.00
40023;DHT22;25713;-35.352;149.036;2022-09-30T04:12:36;14.40;93.70
40023;DHT22;25713;-35.352;149.036;2022-09-30T04:15:06;14.40;93.50
40023;DHT22;25713;-35.352;149.036;2022-09-30T04:17:35;14.30;93.40
40023;DHT22;25713;-35.352;149.036;2022-09-30T04:20:05;14.40;92.90
40023;DHT22;25713;-35.352;149.036;2022-09-30T04:22:38;14.40;93.30
40023;DHT22;25713;-35.352;149.036;2022-09-30T04:25:08;14.50;92.50
40023;DHT22;25713;-35.352;149.036;2022-09-30T04:27:37;14.50;93.30
40023;DHT22;25713;-35.352;149.036;2022-09-30T04:30:07;14.40;93.60
40023;DHT22;25713;-35.352;149.036;2022-09-30T04:32:36;14.40;95.00
40023;DHT22;25713;-35.352;149.036;2022-09-30T04:35:06;14.40;94.70
40023;DHT22;25713;-35.352;149.036;2022-09-30T04:37:41;14.30;94.40
40023;DHT22;25713;-35.352;149.036;2022-09-30T04:40:11;14.20;94.40
40023;DHT22;25713;-35.352;149.036;2022-09-30T04:42:41;14.20;94.40
40023;DHT22;25713;-35.352;149.036;2022-09-30T04:45:12;14.30;94.20
40023;DHT22;25713;-35.352;149.036;2022-09-30T04:47:43;14.20;94.60
40023;DHT22;25713;-35.352;149.036;2022-09-30T04:50:13;14.20;95.00
40023;DHT22;25713;-35.352;149.036;2022-09-30T04:52:46;14.20;95.90
40023;DHT22;25713;-35.352;149.036;2022-09-30T04:55:15;14.10;96.60
40023;DHT22;25713;-35.352;149.036;2022-09-30T04:57:45;14.10;96.50
40023;DHT22;25713;-35.352;149.036;2022-09-30T05:00:14;14.20;97.20
40023;DHT22;25713;-35.352;149.036;2022-09-30T05:02:44;14.10;97.30
40023;DHT22;25713;-35.352;149.036;2022-09-30T05:05:14;14.20;96.80
40023;DHT22;25713;-35.352;149.036;2022-09-30T05:07:46;14.20;97.00
40023;DHT22;25713;-35.352;149.036;2022-09-30T05:10:16;14.30;96.30
40023;DHT22;25713;-35.352;149.036;2022-09-30T05:12:46;14.30;96.10
40023;DHT22;25713;-35.352;149.036;2022-09-30T05:15:15;14.40;96.40
40023;DHT22;25713;-35.352;149.036;2022-09-30T05:17:48;14.40;96.10
40023;DHT22;25713;-35.352;149.036;2022-09-30T05:20:17;14.40;96.10
40023;DHT22;25713;-35.352;149.036;2022-09-30T05:22:53;14.40;96.20
40023;DHT22;25713;-35.352;149.036;2022-09-30T05:25:23;14.50;95.80
40023;DHT22;25713;-35.352;149.036;2022-09-30T05:27:52;14.50;95.10
40023;DHT22;25713;-35.352;149.036;2022-09-30T05:30:22;14.50;95.00
40023;DHT22;25713;-35.352;149.036;2022-09-30T05:32:51;14.50;94.90
40023;DHT22;25713;-35.352;149.036;2022-09-30T05:35:21;14.40;94.20
40023;DHT22;25713;-35.352;149.036;2022-09-30T05:37:52;14.40;94.40
40023;DHT22;25713;-35.352;149.036;2022-09-30T05:40:22;14.30;95.20
40023;DHT22;25713;-35.352;149.036;2022-09-30T05:42:51;14.20;96.40
40023;DHT22;25713;-35.352;149.036;2022-09-30T05:45:21;14.20;96.60
40023;DHT22;25713;-35.352;149.036;2022-09-30T05:47:52;14.10;96.90
40023;DHT22;25713;-35.352;149.036;2022-09-30T05:50:22;14.10;97.10
40023;DHT22;25713;-35.352;149.036;2022-09-30T05:52:54;14.10;97.20
40023;DHT22;25713;-35.352;149.036;2022-09-30T05:55:23;14.10;97.30
40023;DHT22;25713;-35.352;149.036;2022-09-30T05:57:52;14.10;97.60
40023;DHT22;25713;-35.352;149.036;2022-09-30T06:00:22;14.10;97.60
40023;DHT22;25713;-35.352;149.036;2022-09-30T06:02:54;14.00;97.80
40023;DHT22;25713;-35.352;149.036;2022-09-30T06:05:23;14.00;98.00
40023;DHT22;25713;-35.352;149.036;2022-09-30T06:07:55;14.00;97.80
40023;DHT22;25713;-35.352;149.036;2022-09-30T06:10:24;14.00;97.90
40023;DHT22;25713;-35.352;149.036;2022-09-30T06:12:54;14.00;97.80
40023;DHT22;25713;-35.352;149.036;2022-09-30T06:15:23;14.00;98.10
40023;DHT22;25713;-35.352;149.036;2022-09-30T06:17:54;14.10;97.70
40023;DHT22;25713;-35.352;149.036;2022-09-30T06:20:23;14.00;97.80
40023;DHT22;25713;-35.352;149.036;2022-09-30T06:22:55;14.00;98.10
40023;DHT22;25713;-35.352;149.036;2022-09-30T06:25:27;14.10;98.00
40023;DHT22;25713;-35.352;149.036;2022-09-30T06:27:56;14.10;98.00
40023;DHT22;25713;-35.352;149.036;2022-09-30T06:30:26;14.10;98.30
40023;DHT22;25713;-35.352;149.036;2022-09-30T06:32:57;14.10;98.20
40023;DHT22;25713;-35.352;149.036;2022-09-30T06:35:27;14.10;98.20
40023;DHT22;25713;-35.352;149.036;2022-09-30T06:37:58;14.10;98.00
40023;DHT22;25713;-35.352;149.036;2022-09-30T06:40:27;14.10;98.00
40023;DHT22;25713;-35.352;149.036;2022-09-30T06:42:59;14.10;98.00
40023;DHT22;25713;-35.352;149.036;2022-09-30T06:45:30;14.10;98.20
40023;DHT22;25713;-35.352;149.036;2022-09-30T06:48:00;14.10;98.20
40023;DHT22;25713;-35.352;149.036;2022-09-30T06:50:29;14.00;98.10
40023;DHT22;25713;-35.352;149.036;2022-09-30T06:53:03;14.10;98.30
40023;DHT22;25713;-35.352;149.036;2022-09-30T06:55:34;14.00;98.40
40023;DHT22;25713;-35.352;149.036;2022-09-30T06:58:03;14.00;98.30
40023;DHT22;25713;-35.352;149.036;2022-09-30T07:00:33;14.00;98.00
40023;DHT22;25713;-35.352;149.036;2022-09-30T07:03:02;14.00;97.40
40023;DHT22;25713;-35.352;149.036;2022-09-30T07:05:32;14.00;97.20
40023;DHT22;25713;-35.352;149.036;2022-09-30T07:08:03;14.00;97.30
40023;DHT22;25713;-35.352;149.036;2022-09-30T07:10:33;13.90;96.60
40023;DHT22;25713;-35.352;149.036;2022-09-30T07:13:03;13.90;96.60
40023;DHT22;25713;-35.352;149.036;2022-09-30T07:15:32;13.90;97.00
40023;DHT22;25713;-35.352;149.036;2022-09-30T07:18:01;13.90;97.00
40023;DHT22;25713;-35.352;149.036;2022-09-30T07:20:31;13.90;96.90
40023;DHT22;25713;-35.352;149.036;2022-09-30T07:23:02;13.80;96.80
40023;DHT22;25713;-35.352;149.036;2022-09-30T07:25:31;13.80;96.80
40023;DHT22;25713;-35.352;149.036;2022-09-30T07:28:01;13.80;96.40
40023;DHT22;25713;-35.352;149.036;2022-09-30T07:30:30;13.80;96.50
40023;DHT22;25713;-35.352;149.036;2022-09-30T07:32:59;13.80;96.80
40023;DHT22;25713;-35.352;149.036;2022-09-30T07:35:29;13.80;96.00
40023;DHT22;25713;-35.352;149.036;2022-09-30T07:37:58;13.80;96.30
40023;DHT22;25713;-35.352;149.036;2022-09-30T07:40:29;13.80;96.80
40023;DHT22;25713;-35.352;149.036;2022-09-30T07:42:59;13.80;97.20
40023;DHT22;25713;-35.352;149.036;2022-09-30T07:45:28;13.80;96.70
40023;DHT22;25713;-35.352;149.036;2022-09-30T07:47:57;13.80;96.90
40023;DHT22;25713;-35.352;149.036;2022-09-30T07:50:26;13.80;96.60
40023;DHT22;25713;-35.352;149.036;2022-09-30T07:52:56;13.80;96.60
40023;DHT22;25713;-35.352;149.036;2022-09-30T07:55:25;13.80;96.70
40023;DHT22;25713;-35.352;149.036;2022-09-30T07:57:56;13.80;96.90
40023;DHT22;25713;-35.352;149.036;2022-09-30T08:00:26;13.70;96.70
40023;DHT22;25713;-35.352;149.036;2022-09-30T08:02:55;13.80;96.40
40023;DHT22;25713;-35.352;149.036;2022-09-30T08:05:24;13.80;96.60
40023;DHT22;25713;-35.352;149.036;2022-09-30T08:07:54;13.80;96.90
40023;DHT22;25713;-35.352;149.036;2022-09-30T08:10:23;13.80;96.90
40023;DHT22;25713;-35.352;149.036;2022-09-30T08:12:54;13.70;96.80
40023;DHT22;25713;-35.352;149.036;2022-09-30T08:15:24;13.70;96.90
40023;DHT22;25713;-35.352;149.036;2022-09-30T08:17:54;13.70;96.50
40023;DHT22;25713;-35.352;149.036;2022-09-30T08:20:23;13.70;96.90
40023;DHT22;25713;-35.352;149.036;2022-09-30T08:22:53;13.70;97.00
40023;DHT22;25713;-35.352;149.036;2022-09-30T08:25:23;13.70;97.00
40023;DHT22;25713;-35.352;149.036;2022-09-30T08:27:54;13.70;97.00
40023;DHT22;25713;-35.352;149.036;2022-09-30T08:30:24;13.70;97.00
40023;DHT22;25713;-35.352;149.036;2022-09-30T08:32:53;13.70;97.00
40023;DHT22;25713;-35.352;149.036;2022-09-30T08:35:22;13.70;96.90
40023;DHT22;25713;-35.352;149.036;2022-09-30T08:37:52;13.70;96.50
40023;DHT22;25713;-35.352;149.036;2022-09-30T08:40:23;13.70;96.50
40023;DHT22;25713;-35.352;149.036;2022-09-30T08:43:05;13.70;96.50
40023;DHT22;25713;-35.352;149.036;2022-09-30T08:45:36;13.70;96.70
40023;DHT22;25713;-35.352;149.036;2022-09-30T08:48:23;13.70;96.80
40023;DHT22;25713;-35.352;149.036;2022-09-30T08:51:03;13.60;96.80
40023;DHT22;25713;-35.352;149.036;2022-09-30T08:53:37;13.60;97.00
40023;DHT22;25713;-35.352;149.036;2022-09-30T08:56:06;13.60;96.40
40023;DHT22;25713;-35.352;149.036;2022-09-30T08:58:40;13.60;96.80
40023;DHT22;25713;-35.352;149.036;2022-09-30T09:01:16;13.60;97.00
40023;DHT22;25713;-35.352;149.036;2022-09-30T09:03:47;13.60;96.50
40023;DHT22;25713;-35.352;149.036;2022-09-30T09:06:22;13.50;95.80
40023;DHT22;25713;-35.352;149.036;2022-09-30T09:09:13;13.50;96.00
40023;DHT22;25713;-35.352;149.036;2022-09-30T09:12:04;13.60;96.80
40023;DHT22;25713;-35.352;149.036;2022-09-30T09:14:49;13.60;96.60
40023;DHT22;25713;-35.352;149.036;2022-09-30T09:17:30;13.50;96.70
40023;DHT22;25713;-35.352;149.036;2022-09-30T09:20:06;13.60;96.90
40023;DHT22;25713;-35.352;149.036;2022-09-30T09:22:36;13.60;96.50
40023;DHT22;25713;-35.352;149.036;2022-09-30T09:25:08;13.60;96.90
40023;DHT22;25713;-35.352;149.036;2022-09-30T09:27:48;13.60;97.00
40023;DHT22;25713;-35.352;149.036;2022-09-30T09:30:22;13.60;97.10
40023;DHT22;25713;-35.352;149.036;2022-09-30T09:32:53;13.60;97.00
40023;DHT22;25713;-35.352;149.036;2022-09-30T09:35:34;13.60;97.00
40023;DHT22;25713;-35.352;149.036;2022-09-30T09:38:12;13.60;97.00
40023;DHT22;25713;-35.352;149.036;2022-09-30T09:40:48;13.60;97.10
40023;DHT22;25713;-35.352;149.036;2022-09-30T09:43:27;13.60;97.10
40023;DHT22;25713;-35.352;149.036;2022-09-30T09:46:04;13.60;97.10
40023;DHT22;25713;-35.352;149.036;2022-09-30T09:48:40;13.60;96.90
40023;DHT22;25713;-35.352;149.036;2022-09-30T09:51:14;13.60;96.80
40023;DHT22;25713;-35.352;149.036;2022-09-30T09:53:51;13.60;96.50
40023;DHT22;25713;-35.352;149.036;2022-09-30T09:56:21;13.50;96.20
40023;DHT22;25713;-35.352;149.036;2022-09-30T09:59:07;13.50;96.40
40023;DHT22;25713;-35.352;149.036;2022-09-30T10:01:41;13.50;96.40
40023;DHT22;25713;-35.352;149.036;2022-09-30T10:04:15;13.50;96.30
40023;DHT22;25713;-35.352;149.036;2022-09-30T10:06:48;13.50;96.50
40023;DHT22;25713;-35.352;149.036;2022-09-30T10:09:34;13.50;96.40
40023;DHT22;25713;-35.352;149.036;2022-09-30T10:12:32;13.40;96.50
40023;DHT22;25713;-35.352;149.036;2022-09-30T10:15:11;13.50;96.50
40023;DHT22;25713;-35.352;149.036;2022-09-30T10:17:53;13.50;96.40
40023;DHT22;25713;-35.352;149.036;2022-09-30T10:20:32;13.40;96.20
40023;DHT22;25713;-35.352;149.036;2022-09-30T10:23:07;13.40;96.20
40023;DHT22;25713;-35.352;149.036;2022-09-30T10:25:37;13.40;96.20
40023;DHT22;25713;-35.352;149.036;2022-09-30T10:28:22;13.40;96.20
40023;DHT22;25713;-35.352;149.036;2022-09-30T10:30:58;13.40;96.10
40023;DHT22;25713;-35.352;149.036;2022-09-30T10:33:39;13.40;96.00
40023;DHT22;25713;-35.352;149.036;2022-09-30T10:36:12;13.40;95.80
40023;DHT22;25713;-35.352;149.036;2022-09-30T10:38:56;13.40;95.60
40023;DHT22;25713;-35.352;149.036;2022-09-30T10:41:28;13.40;95.60
40023;DHT22;25713;-35.352;149.036;2022-09-30T10:43:59;13.40;95.60
40023;DHT22;25713;-35.352;149.036;2022-09-30T10:46:32;13.30;95.50
40023;DHT22;25713;-35.352;149.036;2022-09-30T10:49:13;13.30;95.20
40023;DHT22;25713;-35.352;149.036;2022-09-30T10:51:48;13.30;95.20
40023;DHT22;25713;-35.352;149.036;2022-09-30T10:54:33;13.30;95.20
40023;DHT22;25713;-35.352;149.036;2022-09-30T10:57:03;13.30;95.00
40023;DHT22;25713;-35.352;149.036;2022-09-30T10:59:35;13.30;95.10
40023;DHT22;25713;-35.352;149.036;2022-09-30T11:05:11;13.30;95.10
40023;DHT22;25713;-35.352;149.036;2022-09-30T11:07:48;13.20;94.70
40023;DHT22;25713;-35.352;149.036;2022-09-30T11:10:33;13.10;95.20
40023;DHT22;25713;-35.352;149.036;2022-09-30T11:13:09;13.20;95.30
40023;DHT22;25713;-35.352;149.036;2022-09-30T11:15:55;13.10;95.10
40023;DHT22;25713;-35.352;149.036;2022-09-30T11:18:31;13.20;95.30
40023;DHT22;25713;-35.352;149.036;2022-09-30T11:21:08;13.10;94.70
40023;DHT22;25713;-35.352;149.036;2022-09-30T11:23:44;13.10;94.90
40023;DHT22;25713;-35.352;149.036;2022-09-30T11:26:24;13.10;94.80
40023;DHT22;25713;-35.352;149.036;2022-09-30T11:29:07;13.00;95.30
40023;DHT22;25713;-35.352;149.036;2022-09-30T11:31:44;13.10;95.50
40023;DHT22;25713;-35.352;149.036;2022-09-30T11:34:26;13.10;95.20
40023;DHT22;25713;-35.352;149.036;2022-09-30T11:37:09;13.00;95.40
40023;DHT22;25713;-35.352;149.036;2022-09-30T11:40:03;13.00;95.40
40023;DHT22;25713;-35.352;149.036;2022-09-30T11:42:42;13.10;95.40
40023;DHT22;25713;-35.352;149.036;2022-09-30T11:45:26;13.10;95.20
40023;DHT22;25713;-35.352;149.036;2022-09-30T11:48:18;13.00;94.80
40023;DHT22;25713;-35.352;149.036;2022-09-30T11:50:55;13.00;95.00
40023;DHT22;25713;-35.352;149.036;2022-09-30T11:53:38;13.00;95.20
40023;DHT22;25713;-35.352;149.036;2022-09-30T11:56:22;13.00;95.10
40023;DHT22;25713;-35.352;149.036;2022-09-30T11:58:58;13.10;94.90
40023;DHT22;25713;-35.352;149.036;2022-09-30T12:01:30;13.10;94.60
40023;DHT22;25713;-35.352;149.036;2022-09-30T12:04:03;13.00;94.70
40023;DHT22;25713;-35.352;149.036;2022-09-30T12:06:35;13.00;94.60
40023;DHT22;25713;-35.352;149.036;2022-09-30T12:09:15;13.00;94.60
40023;DHT22;25713;-35.352;149.036;2022-09-30T12:11:52;12.90;94.60
40023;DHT22;25713;-35.352;149.036;2022-09-30T12:14:27;13.00;94.70
40023;DHT22;25713;-35.352;149.036;2022-09-30T12:17:00;12.90;94.30
40023;DHT22;25713;-35.352;149.036;2022-09-30T12:19:36;13.00;94.50
40023;DHT22;25713;-35.352;149.036;2022-09-30T12:22:13;12.90;94.40
40023;DHT22;25713;-35.352;149.036;2022-09-30T12:24:47;13.00;94.40
40023;DHT22;25713;-35.352;149.036;2022-09-30T12:27:17;13.00;94.00
40023;DHT22;25713;-35.352;149.036;2022-09-30T12:29:53;12.90;94.10
40023;DHT22;25713;-35.352;149.036;2022-09-30T12:33:05;12.90;94.20
40023;DHT22;25713;-35.352;149.036;2022-09-30T12:42:02;12.90;94.10
40023;DHT22;25713;-35.352;149.036;2022-09-30T12:47:42;12.80;94.30
40023;DHT22;25713;-35.352;149.036;2022-09-30T12:50:15;12.80;94.20
40023;DHT22;25713;-35.352;149.036;2022-09-30T12:52:46;12.80;94.40
40023;DHT22;25713;-35.352;149.036;2022-09-30T12:55:23;12.80;94.50
40023;DHT22;25713;-35.352;149.036;2022-09-30T12:57:57;12.80;94.20
40023;DHT22;25713;-35.352;149.036;2022-09-30T13:00:29;12.70;94.40
40023;DHT22;25713;-35.352;149.036;2022-09-30T13:03:04;12.70;94.30
40023;DHT22;25713;-35.352;149.036;2022-09-30T13:05:52;12.70;94.30
40023;DHT22;25713;-35.352;149.036;2022-09-30T13:08:40;12.70;93.60
40023;DHT22;25713;-35.352;149.036;2022-09-30T13:11:31;12.70;94.30
40023;DHT22;25713;-35.352;149.036;2022-09-30T13:14:28;12.70;94.40
40023;DHT22;25713;-35.352;149.036;2022-09-30T13:19:48;12.80;94.30
40023;DHT22;25713;-35.352;149.036;2022-09-30T13:22:42;12.80;94.30
40023;DHT22;25713;-35.352;149.036;2022-09-30T13:25:14;12.80;94.40
40023;DHT22;25713;-35.352;149.036;2022-09-30T13:27:45;12.80;94.20
40023;DHT22;25713;-35.352;149.036;2022-09-30T13:30:39;12.80;94.20
40023;DHT22;25713;-35.352;149.036;2022-09-30T13:33:42;12.80;94.10
40023;DHT22;25713;-35.352;149.036;2022-09-30T13:36:27;12.80;94.10
40023;DHT22;25713;-35.352;149.036;2022-09-30T13:39:20;12.80;94.30
40023;DHT22;25713;-35.352;149.036;2022-09-30T13:42:00;12.80;94.40
40023;DHT22;25713;-35.352;149.036;2022-09-30T13:44:43;12.80;94.40
40023;DHT22;25713;-35.352;149.036;2022-09-30T13:47:25;12.80;94.30
40023;DHT22;25713;-35.352;149.036;2022-09-30T13:49:59;12.80;94.40
40023;DHT22;25713;-35.352;149.036;2022-09-30T13:52:32;12.80;94.40
40023;DHT22;25713;-35.352;149.036;2022-09-30T13:55:05;12.80;94.40
40023;DHT22;25713;-35.352;149.036;2022-09-30T13:57:44;12.80;94.40
40023;DHT22;25713;-35.352;149.036;2022-09-30T14:00:18;12.70;94.40
40023;DHT22;25713;-35.352;149.036;2022-09-30T14:03:05;12.70;94.30
40023;DHT22;25713;-35.352;149.036;2022-09-30T14:05:54;12.80;94.30
40023;DHT22;25713;-35.352;149.036;2022-09-30T14:11:36;12.70;94.30
40023;DHT22;25713;-35.352;149.036;2022-09-30T14:14:26;12.70;94.30
40023;DHT22;25713;-35.352;149.036;2022-09-30T14:17:18;12.80;94.40
40023;DHT22;25713;-35.352;149.036;2022-09-30T14:20:09;12.70;94.10
40023;DHT22;25713;-35.352;149.036;2022-09-30T14:22:43;12.70;94.30
40023;DHT22;25713;-35.352;149.036;2022-09-30T14:25:14;12.70;94.00
40023;DHT22;25713;-35.352;149.036;2022-09-30T14:27:58;12.70;94.20
40023;DHT22;25713;-35.352;149.036;2022-09-30T14:30:31;12.80;94.30
40023;DHT22;25713;-35.352;149.036;2022-09-30T14:33:08;12.70;94.20
40023;DHT22;25713;-35.352;149.036;2022-09-30T14:35:42;12.70;94.30
40023;DHT22;25713;-35.352;149.036;2022-09-30T14:38:12;12.70;94.10
40023;DHT22;25713;-35.352;149.036;2022-09-30T14:40:49;12.70;94.20
40023;DHT22;25713;-35.352;149.036;2022-09-30T14:43:22;12.70;94.30
40023;DHT22;25713;-35.352;149.036;2022-09-30T14:45:53;12.70;94.30
40023;DHT22;25713;-35.352;149.036;2022-09-30T14:48:25;12.70;94.30
40023;DHT22;25713;-35.352;149.036;2022-09-30T14:51:02;12.70;94.20
40023;DHT22;25713;-35.352;149.036;2022-09-30T16:05:03;12.30;94.60
40023;DHT22;25713;-35.352;149.036;2022-09-30T16:07:33;12.40;94.70
40023;DHT22;25713;-35.352;149.036;2022-09-30T16:10:03;12.40;94.70
40023;DHT22;25713;-35.352;149.036;2022-09-30T16:12:33;12.50;94.70
40023;DHT22;25713;-35.352;149.036;2022-09-30T16:15:07;12.50;94.50
40023;DHT22;25713;-35.352;149.036;2022-09-30T16:17:41;12.50;94.20
40023;DHT22;25713;-35.352;149.036;2022-09-30T16:20:23;12.50;94.30
40023;DHT22;25713;-35.352;149.036;2022-09-30T16:22:53;12.50;94.40
40023;DHT22;25713;-35.352;149.036;2022-09-30T16:25:24;12.50;94.40
40023;DHT22;25713;-35.352;149.036;2022-09-30T16:27:58;12.50;94.40
40023;DHT22;25713;-35.352;149.036;2022-09-30T16:30:28;12.50;94.40
40023;DHT22;25713;-35.352;149.036;2022-09-30T16:33:02;12.60;94.10
40023;DHT22;25713;-35.352;149.036;2022-09-30T16:35:35;12.60;94.10
40023;DHT22;25713;-35.352;149.036;2022-09-30T16:38:06;12.50;93.90
40023;DHT22;25713;-35.352;149.036;2022-09-30T16:40:35;12.60;94.00
40023;DHT22;25713;-35.352;149.036;2022-09-30T16:43:05;12.50;93.90
40023;DHT22;25713;-35.352;149.036;2022-09-30T16:45:35;12.60;93.90
40023;DHT22;25713;-35.352;149.036;2022-09-30T16:48:12;12.50;93.80
40023;DHT22;25713;-35.352;149.036;2022-09-30T16:50:47;12.60;93.90
40023;DHT22;25713;-35.352;149.036;2022-09-30T16:53:17;12.60;93.90
40023;DHT22;25713;-35.352;149.036;2022-09-30T16:55:46;12.60;93.90
40023;DHT22;25713;-35.352;149.036;2022-09-30T16:58:16;12.50;93.90
40023;DHT22;25713;-35.352;149.036;2022-09-30T17:00:45;12.60;93.80
40023;DHT22;25713;-35.352;149.036;2022-09-30T17:03:15;12.60;93.60
40023;DHT22;25713;-35.352;149.036;2022-09-30T17:05:48;12.60;93.60
40023;DHT22;25713;-35.352;149.036;2022-09-30T17:08:17;12.60;93.60
40023;DHT22;25713;-35.352;149.036;2022-09-30T17:10:47;12.50;93.50